METAR stanice u blizini

 

LYBE - Beograd / Surčin, Srbija
Ažurirano: 19/12/2018 02:00
Freezing fog, Oblačno
Freezing fog, Oblačno
 Pravac vetra JI
Vetar: JI 4 km/h
Temperatura: -3°C
Tačka rose: -3°C
Vlažnost: 100%
Pritisak: 1030 hPa
Pregled: Freezing Fog
Oblaci: Oblačno
Vidljivost: 1 km
Cloud details: Oblačno 30 m
2018/12/19 01:00 LYBE 190100Z 14002KT 0700 R12/1300D R30/1000N FZFG VV001 M03/M03 Q1030 R12/1///95 NOSIG
LYBT - Beograd / Batajnica, Srbija
Ažurirano: 19/12/2018 02:00
Freezing fog, Oblačno
Freezing fog, Oblačno
 Pravac vetra calm
Vetar: Tišina
Temperatura: -4°C
Tačka rose: -4°C
Vlažnost: 100%
Pritisak: 1030 hPa
Pregled: Freezing Fog
Oblaci: Oblačno
Vidljivost: 1 km
Cloud details: Oblačno 30 m
2018/12/19 01:00 LYBT 190100Z 00000KT 0500 R12/1800U R30/P2000N FZFG VV001 M04/M04 Q1030 12/////// NOSIG
LYVR - Vršac, Srbija
Ažurirano: 19/12/2018 02:00
Mist, Oblačno
Mist, Oblačno
 Pravac vetra calm
Vetar: Tišina
Temperatura: -7°C
Tačka rose: -8°C
Vlažnost: 93%
Pritisak: 1030 hPa
Pregled: Mist
Oblaci: Oblačno
Vidljivost: 3 km
Cloud details: Oblačno 91 m
2018/12/19 01:00 LYVR 190100Z 00000KT 3000 BR OVC003 M07/M08 Q1030 R01/////// NOSIG
 
LYKV - Lađevci, Srbija
Ažurirano: 19/12/2018 02:00
Mist, Oblačno
Mist, Oblačno
 Pravac vetra JJI
Vetar: JJI 4 km/h
Temperatura: -2°C
Tačka rose: -2°C
Vlažnost: 100%
Pritisak: 1029 hPa
Pregled: Mist
Oblaci: Oblačno
Vidljivost: 4 km
Cloud details: Mostly Cloudy 457 m
Oblačno 762 m
2018/12/19 01:00 LYKV 190100Z 15002KT 4000 BR BKN015 OVC025 M02/M02 Q1029 NOSIG
LYNI - Niš, Srbija
Ažurirano: 19/12/2018 02:00
Light snow, Oblačno
Light snow, Oblačno
 Pravac vetra SSZ
Vetar: SSZ 17 km/h
Temperatura: -3°C
Osećaj hladnoće: -8°C
Tačka rose: -5°C
Vlažnost: 86%
Pritisak: 1028 hPa
Pregled: Light Snow
Oblaci: Oblačno
Vidljivost: 7 km
Cloud details: Mostly Cloudy 457 m
Oblačno 914 m
2018/12/19 01:00 LYNI 190100Z 33009KT 310V010 7000 -SN BKN015 OVC030 M03/M05 Q1028 R11/1///94 NOSIG
BKPR - Priština, Srbija
Ažurirano: 19/12/2018 02:00
Light snow, Pretežno oblačno
Light snow, Pretežno oblačno
 Pravac vetra S
Vetar: S 9 km/h
Temperatura: -4°C
Osećaj hladnoće: -8°C
Tačka rose: -6°C
Vlažnost: 86%
Pritisak: 1025 hPa
Pregled: Light Snow
Oblaci: Mostly Cloudy
Vidljivost: 6 km
Cloud details: Partly Cloudy 305 m
Mostly Cloudy 1067 m
2018/12/19 01:00 BKPR 190100Z 36005KT 6000 -SN SCT010 BKN035 M04/M06 Q1025 NOSIG RMK 17590293
 
LHPP - Pecs / Pogany, Hungary
Ažurirano: 18/12/2018 17:45
NOT Current
Oblačno
Oblačno
 Pravac vetra JJZ
Vetar: JJZ 7 km/h
Temperatura: -2°C
Osećaj hladnoće: -6°C
Tačka rose: -3°C
Vlažnost: 93%
Pritisak: 1029 hPa
Oblaci: Oblačno
Vidljivost: 6 km
Cloud details: Few Clouds 792 m
Oblačno 2530 m
2018/12/18 16:45 LHPP 181645Z 21004KT 6000 FEW026 OVC083 M02/M03 Q1029
LHUD - Szeged, Hungary
Ažurirano: 19/12/2018 01:45
Freezing fog, Delimično oblačno
Freezing fog, Delimično oblačno
 Pravac vetra I
Vetar: I 2 km/h
Temperatura: -10°C
Tačka rose: -11°C
Vlažnost: 92%
Pritisak: 1030 hPa
Pregled: Freezing Fog
Oblaci: Partly Cloudy
Vidljivost: 1 km
2018/12/19 00:45 LHUD 190045Z 09001KT 0800 FZFG NSC M10/M11 Q1030
LRTR - Timisoara, Romania
Ažurirano: 19/12/2018 02:00
Freezing fog, Oblačno
Freezing fog, Oblačno
 Pravac vetra SZ
Vetar: SZ 2 km/h
Temperatura: -8°C
Tačka rose: -8°C
Vlažnost: 100%
Pritisak: 1029 hPa
Pregled: Freezing Fog
Oblaci: Oblačno
Vidljivost: 1 km
Cloud details: Oblačno 30 m
2018/12/19 01:00 LRTR 190100Z 32001KT 0600 R11/1300D R29/0900D FZFG VV001 M08/M08 Q1029 R11/190095 NOSIG
 
LRCV - Craiova, Romania
Ažurirano: 19/12/2018 02:00
Oblačno
Oblačno
 Pravac vetra JI
Vetar: JI 7 km/h
Temperatura: -2°C
Osećaj hladnoće: -6°C
Tačka rose: -3°C
Vlažnost: 93%
Pritisak: 1027 hPa
Oblaci: Oblačno
Vidljivost: 6 km
Cloud details: Oblačno 122 m
2018/12/19 01:00 LRCV 190100Z AUTO 14004KT 6000 OVC004/// M02/M03 Q1027
LBSF - Sofia, Bulgaria
Ažurirano: 19/12/2018 02:00
Few Clouds
Few Clouds
 Pravac vetra Z
Vetar: Z 15 km/h
Temperatura: -3°C
Osećaj hladnoće: -8°C
Tačka rose: -6°C
Vlažnost: 80%
Pritisak: 1024 hPa
Oblaci: Few Clouds
Vidljivost: 8 km
Cloud details: Few Clouds 579 m
2018/12/19 01:00 LBSF 190100Z 28008KT 8000 FEW019 M03/M06 Q1024 R99/19//95 NOSIG
LWSK - Skoplje, Makedonija
Ažurirano: 19/12/2018 02:00
Oblačno
Oblačno
 Pravac vetra SSI
Vetar: SSI 15 km/h
Temperatura: -1°C
Osećaj hladnoće: -6°C
Tačka rose: -4°C
Vlažnost: 80%
Pritisak: 1026 hPa
Oblaci: Oblačno
Vidljivost: 10 km
Cloud details: Partly Cloudy 1524 m
Oblačno 2134 m
2018/12/19 01:00 LWSK 190100Z 03008KT 9999 SCT050 OVC070 M01/M04 Q1026 NOSIG
 
LYPG - Podgorica, Crna Gora
Ažurirano: 19/12/2018 02:00
Vedro
Vedro
 Pravac vetra SSI
Vetar: SSI 19 km/h
Temperatura: 5°C
Osećaj hladnoće: 1°C
Tačka rose: -6°C
Vlažnost: 45%
Pritisak: 1023 hPa
Pregled: Vedro
Vidljivost: greater than 10 km
2018/12/19 01:00 LYPG 190100Z 02010KT CAVOK 05/M06 Q1023 NOSIG
LQSA - Sarajevo, Bosna i Hercegovina
Ažurirano: 19/12/2018 02:00
Mostly Cloudy
Mostly Cloudy
 Pravac vetra JZ
Vetar: JZ 2 km/h
Temperatura: -3°C
Tačka rose: -3°C
Vlažnost: 100%
Pritisak: 1027 hPa
Oblaci: Mostly Cloudy
Vidljivost: 7 km
Cloud details: Mostly Cloudy 914 m
2018/12/19 01:00 LQSA 190100Z 22001KT 7000 BKN030 M03/M03 Q1027
LDOS - Osijek, Hrvatksa
Ažurirano: 19/12/2018 02:00
Freezing fog, Oblačno
Freezing fog, Oblačno
 Pravac vetra calm
Vetar: Tišina
Temperatura: -8°C
Tačka rose: -9°C
Vlažnost: 93%
Pritisak: 1029 hPa
Pregled: Freezing Fog
Oblaci: Oblačno
Vidljivost: 0 km
Cloud details: Oblačno 30 m
2018/12/19 01:00 LDOS 190100Z 00000KT 0100 FZFG VV001 M08/M09 Q1029